sensor_id;sensor_type;location;lat;lon;timestamp;P1;durP1;ratioP1;P2;durP2;ratioP2
32214;SDS011;18708;53.124;23.190;2024-01-10T00:01:35;59.92;;;28.38;;
32214;SDS011;18708;53.124;23.190;2024-01-10T00:04:00;66.18;;;30.65;;
32214;SDS011;18708;53.124;23.190;2024-01-10T00:06:26;65.57;;;28.35;;
32214;SDS011;18708;53.124;23.190;2024-01-10T00:08:52;64.68;;;26.42;;
32214;SDS011;18708;53.124;23.190;2024-01-10T00:11:18;59.35;;;27.15;;
32214;SDS011;18708;53.124;23.190;2024-01-10T00:13:44;63.05;;;27.70;;
32214;SDS011;18708;53.124;23.190;2024-01-10T00:16:11;73.85;;;33.15;;
32214;SDS011;18708;53.124;23.190;2024-01-10T00:18:38;75.72;;;36.60;;
32214;SDS011;18708;53.124;23.190;2024-01-10T00:21:05;64.60;;;27.85;;
32214;SDS011;18708;53.124;23.190;2024-01-10T00:23:31;65.25;;;28.73;;
32214;SDS011;18708;53.124;23.190;2024-01-10T00:25:57;69.22;;;29.80;;
32214;SDS011;18708;53.124;23.190;2024-01-10T00:28:23;57.17;;;28.38;;
32214;SDS011;18708;53.124;23.190;2024-01-10T00:30:49;65.22;;;30.08;;
32214;SDS011;18708;53.124;23.190;2024-01-10T00:33:15;63.25;;;29.92;;
32214;SDS011;18708;53.124;23.190;2024-01-10T00:35:41;67.47;;;32.97;;
32214;SDS011;18708;53.124;23.190;2024-01-10T00:38:07;74.65;;;32.55;;
32214;SDS011;18708;53.124;23.190;2024-01-10T00:40:32;70.30;;;32.15;;
32214;SDS011;18708;53.124;23.190;2024-01-10T00:42:58;70.13;;;30.70;;
32214;SDS011;18708;53.124;23.190;2024-01-10T00:45:23;72.32;;;29.40;;
32214;SDS011;18708;53.124;23.190;2024-01-10T00:47:49;62.22;;;26.55;;
32214;SDS011;18708;53.124;23.190;2024-01-10T00:50:15;70.57;;;31.30;;
32214;SDS011;18708;53.124;23.190;2024-01-10T00:52:41;68.20;;;32.60;;
32214;SDS011;18708;53.124;23.190;2024-01-10T00:55:08;67.18;;;30.58;;
32214;SDS011;18708;53.124;23.190;2024-01-10T00:57:34;61.88;;;27.95;;
32214;SDS011;18708;53.124;23.190;2024-01-10T01:00:00;66.43;;;29.65;;
32214;SDS011;18708;53.124;23.190;2024-01-10T01:02:26;58.50;;;25.80;;
32214;SDS011;18708;53.124;23.190;2024-01-10T01:04:52;65.50;;;27.88;;
32214;SDS011;18708;53.124;23.190;2024-01-10T01:07:17;64.72;;;29.65;;
32214;SDS011;18708;53.124;23.190;2024-01-10T01:09:43;60.67;;;26.92;;
32214;SDS011;18708;53.124;23.190;2024-01-10T01:12:09;71.05;;;29.17;;
32214;SDS011;18708;53.124;23.190;2024-01-10T01:14:35;71.82;;;32.22;;
32214;SDS011;18708;53.124;23.190;2024-01-10T01:17:00;56.55;;;23.50;;
32214;SDS011;18708;53.124;23.190;2024-01-10T01:19:26;61.70;;;26.55;;
32214;SDS011;18708;53.124;23.190;2024-01-10T01:21:52;63.15;;;24.80;;
32214;SDS011;18708;53.124;23.190;2024-01-10T01:24:17;59.83;;;26.95;;
32214;SDS011;18708;53.124;23.190;2024-01-10T01:26:43;59.42;;;25.92;;
32214;SDS011;18708;53.124;23.190;2024-01-10T01:29:09;54.78;;;25.83;;
32214;SDS011;18708;53.124;23.190;2024-01-10T01:31:34;65.18;;;27.30;;
32214;SDS011;18708;53.124;23.190;2024-01-10T01:34:00;65.68;;;27.98;;
32214;SDS011;18708;53.124;23.190;2024-01-10T01:36:26;64.20;;;28.10;;
32214;SDS011;18708;53.124;23.190;2024-01-10T01:38:51;69.28;;;27.92;;
32214;SDS011;18708;53.124;23.190;2024-01-10T01:41:17;67.18;;;26.73;;
32214;SDS011;18708;53.124;23.190;2024-01-10T01:43:44;70.38;;;29.65;;
32214;SDS011;18708;53.124;23.190;2024-01-10T01:46:10;62.45;;;27.27;;
32214;SDS011;18708;53.124;23.190;2024-01-10T01:48:37;65.55;;;26.23;;
32214;SDS011;18708;53.124;23.190;2024-01-10T01:51:04;86.93;;;35.45;;
32214;SDS011;18708;53.124;23.190;2024-01-10T01:53:33;61.47;;;28.83;;
32214;SDS011;18708;53.124;23.190;2024-01-10T01:56:00;65.72;;;29.40;;
32214;SDS011;18708;53.124;23.190;2024-01-10T01:58:29;70.75;;;29.08;;
32214;SDS011;18708;53.124;23.190;2024-01-10T02:00:55;72.75;;;29.55;;
32214;SDS011;18708;53.124;23.190;2024-01-10T02:03:21;63.90;;;27.98;;
32214;SDS011;18708;53.124;23.190;2024-01-10T02:05:47;77.00;;;28.38;;
32214;SDS011;18708;53.124;23.190;2024-01-10T02:08:13;83.78;;;32.53;;
32214;SDS011;18708;53.124;23.190;2024-01-10T02:10:39;82.03;;;33.90;;
32214;SDS011;18708;53.124;23.190;2024-01-10T02:13:05;131.38;;;46.00;;
32214;SDS011;18708;53.124;23.190;2024-01-10T02:15:31;82.63;;;32.83;;
32214;SDS011;18708;53.124;23.190;2024-01-10T02:17:57;70.30;;;29.08;;
32214;SDS011;18708;53.124;23.190;2024-01-10T02:20:22;73.68;;;29.83;;
32214;SDS011;18708;53.124;23.190;2024-01-10T02:22:48;80.55;;;30.75;;
32214;SDS011;18708;53.124;23.190;2024-01-10T02:25:15;80.88;;;33.45;;
32214;SDS011;18708;53.124;23.190;2024-01-10T02:27:41;79.80;;;32.65;;
32214;SDS011;18708;53.124;23.190;2024-01-10T02:30:08;81.50;;;33.55;;
32214;SDS011;18708;53.124;23.190;2024-01-10T02:32:35;80.65;;;31.40;;
32214;SDS011;18708;53.124;23.190;2024-01-10T02:35:01;83.88;;;32.58;;
32214;SDS011;18708;53.124;23.190;2024-01-10T02:37:27;78.05;;;29.80;;
32214;SDS011;18708;53.124;23.190;2024-01-10T02:39:53;75.45;;;29.98;;
32214;SDS011;18708;53.124;23.190;2024-01-10T02:42:20;95.60;;;33.88;;
32214;SDS011;18708;53.124;23.190;2024-01-10T02:44:46;99.57;;;34.20;;
32214;SDS011;18708;53.124;23.190;2024-01-10T02:47:11;92.45;;;36.42;;
32214;SDS011;18708;53.124;23.190;2024-01-10T02:49:38;73.50;;;29.95;;
32214;SDS011;18708;53.124;23.190;2024-01-10T02:52:04;109.05;;;40.15;;
32214;SDS011;18708;53.124;23.190;2024-01-10T02:54:30;88.10;;;32.85;;
32214;SDS011;18708;53.124;23.190;2024-01-10T02:56:56;102.90;;;36.45;;
32214;SDS011;18708;53.124;23.190;2024-01-10T02:59:21;77.68;;;30.85;;
32214;SDS011;18708;53.124;23.190;2024-01-10T03:01:47;108.45;;;37.80;;
32214;SDS011;18708;53.124;23.190;2024-01-10T03:04:13;98.57;;;37.13;;
32214;SDS011;18708;53.124;23.190;2024-01-10T03:06:39;111.57;;;39.42;;
32214;SDS011;18708;53.124;23.190;2024-01-10T03:09:05;95.65;;;35.60;;
32214;SDS011;18708;53.124;23.190;2024-01-10T03:11:30;96.85;;;35.03;;
32214;SDS011;18708;53.124;23.190;2024-01-10T03:14:03;92.70;;;32.78;;
32214;SDS011;18708;53.124;23.190;2024-01-10T03:16:32;98.13;;;36.63;;
32214;SDS011;18708;53.124;23.190;2024-01-10T03:18:58;106.43;;;36.72;;
32214;SDS011;18708;53.124;23.190;2024-01-10T03:21:23;98.97;;;35.35;;
32214;SDS011;18708;53.124;23.190;2024-01-10T03:23:51;89.07;;;34.33;;
32214;SDS011;18708;53.124;23.190;2024-01-10T03:26:20;94.00;;;37.42;;
32214;SDS011;18708;53.124;23.190;2024-01-10T03:28:46;118.50;;;42.08;;
32214;SDS011;18708;53.124;23.190;2024-01-10T03:31:11;112.75;;;38.17;;
32214;SDS011;18708;53.124;23.190;2024-01-10T03:33:37;127.28;;;44.65;;
32214;SDS011;18708;53.124;23.190;2024-01-10T03:36:03;90.80;;;34.70;;
32214;SDS011;18708;53.124;23.190;2024-01-10T03:38:30;83.32;;;30.52;;
32214;SDS011;18708;53.124;23.190;2024-01-10T03:40:55;87.13;;;30.52;;
32214;SDS011;18708;53.124;23.190;2024-01-10T03:43:21;86.93;;;31.70;;
32214;SDS011;18708;53.124;23.190;2024-01-10T03:45:47;77.05;;;28.80;;
32214;SDS011;18708;53.124;23.190;2024-01-10T03:48:12;81.95;;;29.83;;
32214;SDS011;18708;53.124;23.190;2024-01-10T03:50:38;79.40;;;28.23;;
32214;SDS011;18708;53.124;23.190;2024-01-10T03:53:03;74.70;;;28.10;;
32214;SDS011;18708;53.124;23.190;2024-01-10T03:55:29;92.63;;;32.78;;
32214;SDS011;18708;53.124;23.190;2024-01-10T03:57:55;88.40;;;33.38;;
32214;SDS011;18708;53.124;23.190;2024-01-10T04:00:21;78.50;;;30.45;;
32214;SDS011;18708;53.124;23.190;2024-01-10T04:02:47;81.60;;;28.42;;
32214;SDS011;18708;53.124;23.190;2024-01-10T04:05:13;77.47;;;28.13;;
32214;SDS011;18708;53.124;23.190;2024-01-10T04:07:42;71.80;;;26.55;;
32214;SDS011;18708;53.124;23.190;2024-01-10T04:10:08;119.75;;;40.03;;
32214;SDS011;18708;53.124;23.190;2024-01-10T04:12:38;88.90;;;32.03;;
32214;SDS011;18708;53.124;23.190;2024-01-10T04:15:13;105.90;;;35.15;;
32214;SDS011;18708;53.124;23.190;2024-01-10T04:17:39;97.22;;;32.42;;
32214;SDS011;18708;53.124;23.190;2024-01-10T04:20:05;100.88;;;34.28;;
32214;SDS011;18708;53.124;23.190;2024-01-10T04:22:31;95.20;;;33.28;;
32214;SDS011;18708;53.124;23.190;2024-01-10T04:24:57;71.47;;;26.88;;
32214;SDS011;18708;53.124;23.190;2024-01-10T04:27:24;109.22;;;37.00;;
32214;SDS011;18708;53.124;23.190;2024-01-10T04:29:49;78.28;;;28.83;;
32214;SDS011;18708;53.124;23.190;2024-01-10T04:32:15;85.20;;;28.95;;
32214;SDS011;18708;53.124;23.190;2024-01-10T04:34:40;81.43;;;28.30;;
32214;SDS011;18708;53.124;23.190;2024-01-10T04:37:06;89.40;;;30.67;;
32214;SDS011;18708;53.124;23.190;2024-01-10T04:39:33;82.43;;;27.30;;
32214;SDS011;18708;53.124;23.190;2024-01-10T04:41:59;93.03;;;29.98;;
32214;SDS011;18708;53.124;23.190;2024-01-10T04:44:25;82.75;;;29.35;;
32214;SDS011;18708;53.124;23.190;2024-01-10T04:46:50;75.75;;;27.15;;
32214;SDS011;18708;53.124;23.190;2024-01-10T04:49:16;94.40;;;34.75;;
32214;SDS011;18708;53.124;23.190;2024-01-10T04:51:42;83.15;;;28.80;;
32214;SDS011;18708;53.124;23.190;2024-01-10T04:54:08;79.63;;;29.80;;
32214;SDS011;18708;53.124;23.190;2024-01-10T04:56:34;74.30;;;29.27;;
32214;SDS011;18708;53.124;23.190;2024-01-10T04:59:04;74.78;;;28.25;;
32214;SDS011;18708;53.124;23.190;2024-01-10T05:01:30;74.10;;;28.73;;
32214;SDS011;18708;53.124;23.190;2024-01-10T05:03:56;85.57;;;31.55;;
32214;SDS011;18708;53.124;23.190;2024-01-10T05:06:22;94.03;;;30.85;;
32214;SDS011;18708;53.124;23.190;2024-01-10T05:08:48;86.95;;;29.10;;
32214;SDS011;18708;53.124;23.190;2024-01-10T05:11:14;82.22;;;30.20;;
32214;SDS011;18708;53.124;23.190;2024-01-10T05:13:41;90.65;;;32.75;;
32214;SDS011;18708;53.124;23.190;2024-01-10T05:16:07;81.35;;;30.90;;
32214;SDS011;18708;53.124;23.190;2024-01-10T05:18:33;89.25;;;33.55;;
32214;SDS011;18708;53.124;23.190;2024-01-10T05:20:59;81.43;;;28.33;;
32214;SDS011;18708;53.124;23.190;2024-01-10T05:23:25;79.82;;;29.73;;
32214;SDS011;18708;53.124;23.190;2024-01-10T05:25:51;80.95;;;29.45;;
32214;SDS011;18708;53.124;23.190;2024-01-10T05:28:16;87.47;;;29.17;;
32214;SDS011;18708;53.124;23.190;2024-01-10T05:30:42;91.38;;;34.28;;
32214;SDS011;18708;53.124;23.190;2024-01-10T05:33:09;88.28;;;30.95;;
32214;SDS011;18708;53.124;23.190;2024-01-10T05:35:36;92.88;;;31.65;;
32214;SDS011;18708;53.124;23.190;2024-01-10T05:38:03;87.68;;;31.90;;
32214;SDS011;18708;53.124;23.190;2024-01-10T05:40:29;83.18;;;30.05;;
32214;SDS011;18708;53.124;23.190;2024-01-10T05:42:58;89.00;;;31.45;;
32214;SDS011;18708;53.124;23.190;2024-01-10T05:45:27;81.38;;;29.85;;
32214;SDS011;18708;53.124;23.190;2024-01-10T05:47:53;87.25;;;30.60;;
32214;SDS011;18708;53.124;23.190;2024-01-10T05:50:20;93.13;;;32.45;;
32214;SDS011;18708;53.124;23.190;2024-01-10T05:52:46;137.52;;;52.95;;
32214;SDS011;18708;53.124;23.190;2024-01-10T05:55:12;89.78;;;33.60;;
32214;SDS011;18708;53.124;23.190;2024-01-10T05:57:37;83.88;;;33.22;;
32214;SDS011;18708;53.124;23.190;2024-01-10T06:00:04;85.60;;;30.70;;
32214;SDS011;18708;53.124;23.190;2024-01-10T06:02:35;83.72;;;29.75;;
32214;SDS011;18708;53.124;23.190;2024-01-10T06:05:05;82.05;;;31.65;;
32214;SDS011;18708;53.124;23.190;2024-01-10T06:07:34;86.55;;;30.00;;
32214;SDS011;18708;53.124;23.190;2024-01-10T06:10:00;78.05;;;29.48;;
32214;SDS011;18708;53.124;23.190;2024-01-10T06:12:26;81.75;;;30.25;;
32214;SDS011;18708;53.124;23.190;2024-01-10T06:14:53;94.70;;;33.30;;
32214;SDS011;18708;53.124;23.190;2024-01-10T06:17:18;143.95;;;56.85;;
32214;SDS011;18708;53.124;23.190;2024-01-10T06:19:44;93.18;;;37.55;;
32214;SDS011;18708;53.124;23.190;2024-01-10T06:22:10;95.38;;;35.63;;
32214;SDS011;18708;53.124;23.190;2024-01-10T06:24:38;99.25;;;38.55;;
32214;SDS011;18708;53.124;23.190;2024-01-10T06:27:06;88.55;;;30.23;;
32214;SDS011;18708;53.124;23.190;2024-01-10T06:29:31;81.30;;;28.83;;
32214;SDS011;18708;53.124;23.190;2024-01-10T06:31:57;90.50;;;32.67;;
32214;SDS011;18708;53.124;23.190;2024-01-10T06:34:26;91.72;;;30.38;;
32214;SDS011;18708;53.124;23.190;2024-01-10T06:36:52;88.45;;;30.33;;
32214;SDS011;18708;53.124;23.190;2024-01-10T06:39:17;116.70;;;46.72;;
32214;SDS011;18708;53.124;23.190;2024-01-10T06:41:45;91.20;;;32.35;;
32214;SDS011;18708;53.124;23.190;2024-01-10T06:44:11;131.73;;;47.67;;
32214;SDS011;18708;53.124;23.190;2024-01-10T06:46:37;101.00;;;38.75;;
32214;SDS011;18708;53.124;23.190;2024-01-10T06:49:02;121.03;;;43.20;;
32214;SDS011;18708;53.124;23.190;2024-01-10T06:51:28;92.88;;;34.28;;
32214;SDS011;18708;53.124;23.190;2024-01-10T06:53:54;88.53;;;32.85;;
32214;SDS011;18708;53.124;23.190;2024-01-10T06:56:27;102.85;;;37.22;;
32214;SDS011;18708;53.124;23.190;2024-01-10T06:58:53;98.78;;;36.65;;
32214;SDS011;18708;53.124;23.190;2024-01-10T07:01:19;102.55;;;37.10;;
32214;SDS011;18708;53.124;23.190;2024-01-10T07:03:47;116.45;;;43.75;;
32214;SDS011;18708;53.124;23.190;2024-01-10T07:06:12;104.72;;;34.63;;
32214;SDS011;18708;53.124;23.190;2024-01-10T07:08:40;75.80;;;28.40;;
32214;SDS011;18708;53.124;23.190;2024-01-10T07:11:07;89.13;;;35.45;;
32214;SDS011;18708;53.124;23.190;2024-01-10T07:13:33;112.28;;;48.38;;
32214;SDS011;18708;53.124;23.190;2024-01-10T07:15:59;88.50;;;32.72;;
32214;SDS011;18708;53.124;23.190;2024-01-10T07:18:27;144.18;;;58.72;;
32214;SDS011;18708;53.124;23.190;2024-01-10T07:20:53;123.28;;;48.28;;
32214;SDS011;18708;53.124;23.190;2024-01-10T07:23:19;140.77;;;54.97;;
32214;SDS011;18708;53.124;23.190;2024-01-10T07:25:45;77.60;;;29.38;;
32214;SDS011;18708;53.124;23.190;2024-01-10T07:28:11;82.20;;;29.65;;
32214;SDS011;18708;53.124;23.190;2024-01-10T07:30:36;95.72;;;34.92;;
32214;SDS011;18708;53.124;23.190;2024-01-10T07:33:02;95.05;;;36.47;;
32214;SDS011;18708;53.124;23.190;2024-01-10T07:35:28;93.60;;;37.45;;
32214;SDS011;18708;53.124;23.190;2024-01-10T07:37:54;77.18;;;30.63;;
32214;SDS011;18708;53.124;23.190;2024-01-10T07:40:20;84.30;;;33.83;;
32214;SDS011;18708;53.124;23.190;2024-01-10T07:42:45;82.70;;;33.30;;
32214;SDS011;18708;53.124;23.190;2024-01-10T07:45:11;80.55;;;28.50;;
32214;SDS011;18708;53.124;23.190;2024-01-10T07:47:37;72.43;;;26.48;;
32214;SDS011;18708;53.124;23.190;2024-01-10T07:50:06;72.70;;;26.60;;
32214;SDS011;18708;53.124;23.190;2024-01-10T07:52:33;79.15;;;27.77;;
32214;SDS011;18708;53.124;23.190;2024-01-10T07:54:59;76.25;;;26.38;;
32214;SDS011;18708;53.124;23.190;2024-01-10T07:57:25;72.32;;;27.08;;
32214;SDS011;18708;53.124;23.190;2024-01-10T07:59:52;74.47;;;27.33;;
32214;SDS011;18708;53.124;23.190;2024-01-10T08:02:18;83.22;;;29.33;;
32214;SDS011;18708;53.124;23.190;2024-01-10T08:04:44;76.78;;;25.60;;
32214;SDS011;18708;53.124;23.190;2024-01-10T08:07:09;82.15;;;29.45;;
32214;SDS011;18708;53.124;23.190;2024-01-10T08:09:36;72.03;;;27.77;;
32214;SDS011;18708;53.124;23.190;2024-01-10T08:12:02;79.07;;;28.58;;
32214;SDS011;18708;53.124;23.190;2024-01-10T08:14:28;76.35;;;27.55;;
32214;SDS011;18708;53.124;23.190;2024-01-10T08:16:54;92.00;;;34.90;;
32214;SDS011;18708;53.124;23.190;2024-01-10T08:19:23;79.25;;;31.50;;
32214;SDS011;18708;53.124;23.190;2024-01-10T08:21:51;82.75;;;28.10;;
32214;SDS011;18708;53.124;23.190;2024-01-10T08:24:19;74.15;;;26.38;;
32214;SDS011;18708;53.124;23.190;2024-01-10T08:26:48;79.32;;;28.42;;
32214;SDS011;18708;53.124;23.190;2024-01-10T08:29:20;80.00;;;29.13;;
32214;SDS011;18708;53.124;23.190;2024-01-10T08:31:46;84.57;;;28.17;;
32214;SDS011;18708;53.124;23.190;2024-01-10T08:34:13;71.15;;;25.50;;
32214;SDS011;18708;53.124;23.190;2024-01-10T08:36:39;77.88;;;27.33;;
32214;SDS011;18708;53.124;23.190;2024-01-10T08:39:05;84.85;;;28.25;;
32214;SDS011;18708;53.124;23.190;2024-01-10T08:41:31;76.65;;;27.35;;
32214;SDS011;18708;53.124;23.190;2024-01-10T08:43:58;64.10;;;25.17;;
32214;SDS011;18708;53.124;23.190;2024-01-10T08:46:24;91.15;;;34.03;;
32214;SDS011;18708;53.124;23.190;2024-01-10T08:48:50;99.93;;;35.55;;
32214;SDS011;18708;53.124;23.190;2024-01-10T08:51:16;95.03;;;33.78;;
32214;SDS011;18708;53.124;23.190;2024-01-10T08:53:44;93.65;;;35.17;;
32214;SDS011;18708;53.124;23.190;2024-01-10T08:56:10;76.40;;;28.85;;
32214;SDS011;18708;53.124;23.190;2024-01-10T08:58:36;105.53;;;33.97;;
32214;SDS011;18708;53.124;23.190;2024-01-10T09:01:03;77.00;;;25.83;;
32214;SDS011;18708;53.124;23.190;2024-01-10T09:03:33;84.47;;;29.90;;
32214;SDS011;18708;53.124;23.190;2024-01-10T09:05:59;70.07;;;28.70;;
32214;SDS011;18708;53.124;23.190;2024-01-10T09:08:25;71.72;;;25.27;;
32214;SDS011;18708;53.124;23.190;2024-01-10T09:10:50;61.65;;;21.80;;
32214;SDS011;18708;53.124;23.190;2024-01-10T09:13:16;60.25;;;24.27;;
32214;SDS011;18708;53.124;23.190;2024-01-10T09:15:42;71.80;;;28.20;;
32214;SDS011;18708;53.124;23.190;2024-01-10T09:18:08;74.75;;;27.70;;
32214;SDS011;18708;53.124;23.190;2024-01-10T09:20:34;79.38;;;30.10;;
32214;SDS011;18708;53.124;23.190;2024-01-10T09:23:01;66.55;;;24.95;;
32214;SDS011;18708;53.124;23.190;2024-01-10T09:25:27;67.05;;;27.13;;
32214;SDS011;18708;53.124;23.190;2024-01-10T09:27:53;65.03;;;23.83;;
32214;SDS011;18708;53.124;23.190;2024-01-10T09:30:19;59.85;;;23.40;;
32214;SDS011;18708;53.124;23.190;2024-01-10T09:32:45;73.22;;;22.67;;
32214;SDS011;18708;53.124;23.190;2024-01-10T09:35:11;66.22;;;20.77;;
32214;SDS011;18708;53.124;23.190;2024-01-10T09:37:38;64.88;;;23.15;;
32214;SDS011;18708;53.124;23.190;2024-01-10T09:40:04;66.72;;;22.70;;
32214;SDS011;18708;53.124;23.190;2024-01-10T09:42:34;59.17;;;22.45;;
32214;SDS011;18708;53.124;23.190;2024-01-10T09:45:03;62.88;;;22.38;;
32214;SDS011;18708;53.124;23.190;2024-01-10T09:47:30;61.83;;;23.08;;
32214;SDS011;18708;53.124;23.190;2024-01-10T09:49:57;61.15;;;21.70;;
32214;SDS011;18708;53.124;23.190;2024-01-10T09:52:24;58.88;;;21.27;;
32214;SDS011;18708;53.124;23.190;2024-01-10T09:54:53;75.22;;;24.77;;
32214;SDS011;18708;53.124;23.190;2024-01-10T09:57:21;53.17;;;22.15;;
32214;SDS011;18708;53.124;23.190;2024-01-10T09:59:49;69.70;;;24.48;;
32214;SDS011;18708;53.124;23.190;2024-01-10T10:02:16;61.58;;;22.25;;
32214;SDS011;18708;53.124;23.190;2024-01-10T10:04:46;63.47;;;23.23;;
32214;SDS011;18708;53.124;23.190;2024-01-10T10:07:48;69.38;;;24.10;;
32214;SDS011;18708;53.124;23.190;2024-01-10T10:10:15;64.60;;;24.63;;
32214;SDS011;18708;53.124;23.190;2024-01-10T10:12:43;60.40;;;22.85;;
32214;SDS011;18708;53.124;23.190;2024-01-10T10:15:17;71.53;;;25.08;;
32214;SDS011;18708;53.124;23.190;2024-01-10T10:17:47;81.30;;;28.20;;
32214;SDS011;18708;53.124;23.190;2024-01-10T10:20:20;76.03;;;29.40;;
32214;SDS011;18708;53.124;23.190;2024-01-10T10:22:57;87.85;;;28.85;;
32214;SDS011;18708;53.124;23.190;2024-01-10T10:28:03;78.55;;;25.92;;
32214;SDS011;18708;53.124;23.190;2024-01-10T10:30:32;80.82;;;28.83;;
32214;SDS011;18708;53.124;23.190;2024-01-10T10:32:58;78.47;;;27.02;;
32214;SDS011;18708;53.124;23.190;2024-01-10T10:35:24;73.25;;;25.00;;
32214;SDS011;18708;53.124;23.190;2024-01-10T10:37:52;69.85;;;25.25;;
32214;SDS011;18708;53.124;23.190;2024-01-10T10:40:18;69.57;;;27.05;;
32214;SDS011;18708;53.124;23.190;2024-01-10T10:42:45;75.32;;;28.98;;
32214;SDS011;18708;53.124;23.190;2024-01-10T10:45:19;73.82;;;26.17;;
32214;SDS011;18708;53.124;23.190;2024-01-10T10:47:50;70.90;;;24.13;;
32214;SDS011;18708;53.124;23.190;2024-01-10T10:50:24;70.13;;;26.80;;
32214;SDS011;18708;53.124;23.190;2024-01-10T10:52:53;78.50;;;26.63;;
32214;SDS011;18708;53.124;23.190;2024-01-10T10:55:23;59.50;;;23.33;;
32214;SDS011;18708;53.124;23.190;2024-01-10T10:57:51;66.38;;;24.52;;
32214;SDS011;18708;53.124;23.190;2024-01-10T11:00:19;64.55;;;23.80;;
32214;SDS011;18708;53.124;23.190;2024-01-10T11:02:47;69.97;;;24.73;;
32214;SDS011;18708;53.124;23.190;2024-01-10T11:05:13;65.97;;;24.92;;
32214;SDS011;18708;53.124;23.190;2024-01-10T11:07:42;64.05;;;24.15;;
32214;SDS011;18708;53.124;23.190;2024-01-10T11:10:13;66.63;;;25.38;;
32214;SDS011;18708;53.124;23.190;2024-01-10T11:18:44;57.90;;;22.60;;
32214;SDS011;18708;53.124;23.190;2024-01-10T11:21:40;66.97;;;23.30;;
32214;SDS011;18708;53.124;23.190;2024-01-10T11:24:27;57.88;;;22.75;;
32214;SDS011;18708;53.124;23.190;2024-01-10T11:27:12;61.60;;;21.38;;
32214;SDS011;18708;53.124;23.190;2024-01-10T11:29:39;67.20;;;23.13;;
32214;SDS011;18708;53.124;23.190;2024-01-10T11:32:15;49.30;;;20.75;;
32214;SDS011;18708;53.124;23.190;2024-01-10T11:37:37;58.80;;;22.05;;
32214;SDS011;18708;53.124;23.190;2024-01-10T11:40:08;57.72;;;21.13;;
32214;SDS011;18708;53.124;23.190;2024-01-10T11:42:44;61.90;;;19.75;;
32214;SDS011;18708;53.124;23.190;2024-01-10T11:47:55;64.22;;;21.45;;
32214;SDS011;18708;53.124;23.190;2024-01-10T11:50:21;60.70;;;22.40;;
32214;SDS011;18708;53.124;23.190;2024-01-10T11:52:52;62.10;;;23.58;;
32214;SDS011;18708;53.124;23.190;2024-01-10T11:58:17;65.90;;;23.20;;
32214;SDS011;18708;53.124;23.190;2024-01-10T12:00:42;56.00;;;19.70;;
32214;SDS011;18708;53.124;23.190;2024-01-10T12:03:12;65.00;;;23.98;;
32214;SDS011;18708;53.124;23.190;2024-01-10T12:05:38;62.95;;;25.98;;
32214;SDS011;18708;53.124;23.190;2024-01-10T12:08:06;71.03;;;26.38;;
32214;SDS011;18708;53.124;23.190;2024-01-10T12:10:33;65.05;;;25.40;;
32214;SDS011;18708;53.124;23.190;2024-01-10T12:13:02;65.28;;;24.63;;
32214;SDS011;18708;53.124;23.190;2024-01-10T12:15:31;78.63;;;29.80;;
32214;SDS011;18708;53.124;23.190;2024-01-10T12:17:56;85.80;;;34.25;;
32214;SDS011;18708;53.124;23.190;2024-01-10T12:20:22;92.82;;;36.40;;
32214;SDS011;18708;53.124;23.190;2024-01-10T12:22:48;67.18;;;26.08;;
32214;SDS011;18708;53.124;23.190;2024-01-10T12:25:13;69.38;;;25.13;;
32214;SDS011;18708;53.124;23.190;2024-01-10T12:27:39;78.32;;;30.50;;
32214;SDS011;18708;53.124;23.190;2024-01-10T12:30:05;73.60;;;25.38;;
32214;SDS011;18708;53.124;23.190;2024-01-10T12:32:32;64.57;;;24.98;;
32214;SDS011;18708;53.124;23.190;2024-01-10T12:35:01;87.45;;;42.85;;
32214;SDS011;18708;53.124;23.190;2024-01-10T12:37:28;65.10;;;26.75;;
32214;SDS011;18708;53.124;23.190;2024-01-10T12:39:54;78.70;;;29.88;;
32214;SDS011;18708;53.124;23.190;2024-01-10T12:42:21;121.22;;;41.72;;
32214;SDS011;18708;53.124;23.190;2024-01-10T12:44:47;94.93;;;34.30;;
32214;SDS011;18708;53.124;23.190;2024-01-10T12:47:19;81.63;;;31.10;;
32214;SDS011;18708;53.124;23.190;2024-01-10T12:49:45;71.38;;;26.45;;
32214;SDS011;18708;53.124;23.190;2024-01-10T12:52:12;81.90;;;30.45;;
32214;SDS011;18708;53.124;23.190;2024-01-10T12:54:38;72.85;;;25.02;;
32214;SDS011;18708;53.124;23.190;2024-01-10T12:57:04;79.75;;;28.05;;
32214;SDS011;18708;53.124;23.190;2024-01-10T12:59:31;78.55;;;28.92;;
32214;SDS011;18708;53.124;23.190;2024-01-10T13:01:57;78.50;;;26.25;;
32214;SDS011;18708;53.124;23.190;2024-01-10T13:04:23;88.20;;;35.60;;
32214;SDS011;18708;53.124;23.190;2024-01-10T13:06:49;70.65;;;26.60;;
32214;SDS011;18708;53.124;23.190;2024-01-10T13:09:15;73.18;;;26.92;;
32214;SDS011;18708;53.124;23.190;2024-01-10T13:11:41;74.97;;;28.27;;
32214;SDS011;18708;53.124;23.190;2024-01-10T13:14:07;79.55;;;30.45;;
32214;SDS011;18708;53.124;23.190;2024-01-10T13:16:32;80.78;;;27.83;;
32214;SDS011;18708;53.124;23.190;2024-01-10T13:18:58;82.53;;;30.05;;
32214;SDS011;18708;53.124;23.190;2024-01-10T13:21:24;103.35;;;36.67;;
32214;SDS011;18708;53.124;23.190;2024-01-10T13:23:50;90.00;;;30.17;;
32214;SDS011;18708;53.124;23.190;2024-01-10T13:26:16;96.28;;;37.00;;
32214;SDS011;18708;53.124;23.190;2024-01-10T13:28:42;88.55;;;37.47;;
32214;SDS011;18708;53.124;23.190;2024-01-10T13:31:08;122.78;;;46.67;;
32214;SDS011;18708;53.124;23.190;2024-01-10T13:33:34;70.35;;;26.92;;
32214;SDS011;18708;53.124;23.190;2024-01-10T13:36:01;76.70;;;29.50;;
32214;SDS011;18708;53.124;23.190;2024-01-10T13:38:28;124.75;;;46.53;;
32214;SDS011;18708;53.124;23.190;2024-01-10T13:40:53;147.82;;;52.10;;
32214;SDS011;18708;53.124;23.190;2024-01-10T13:43:19;99.50;;;39.50;;
32214;SDS011;18708;53.124;23.190;2024-01-10T13:45:45;86.18;;;33.85;;
32214;SDS011;18708;53.124;23.190;2024-01-10T13:48:10;84.72;;;33.67;;
32214;SDS011;18708;53.124;23.190;2024-01-10T13:50:36;87.63;;;32.45;;
32214;SDS011;18708;53.124;23.190;2024-01-10T13:53:02;75.47;;;28.35;;
32214;SDS011;18708;53.124;23.190;2024-01-10T13:55:29;97.15;;;35.90;;
32214;SDS011;18708;53.124;23.190;2024-01-10T13:57:55;91.78;;;36.35;;
32214;SDS011;18708;53.124;23.190;2024-01-10T14:00:21;95.18;;;38.70;;
32214;SDS011;18708;53.124;23.190;2024-01-10T14:02:47;104.63;;;40.70;;
32214;SDS011;18708;53.124;23.190;2024-01-10T14:05:13;106.60;;;48.50;;
32214;SDS011;18708;53.124;23.190;2024-01-10T14:07:39;96.10;;;38.22;;
32214;SDS011;18708;53.124;23.190;2024-01-10T14:10:05;80.32;;;31.02;;
32214;SDS011;18708;53.124;23.190;2024-01-10T14:12:31;75.85;;;30.20;;
32214;SDS011;18708;53.124;23.190;2024-01-10T14:14:56;75.35;;;27.90;;
32214;SDS011;18708;53.124;23.190;2024-01-10T14:17:24;78.35;;;28.13;;
32214;SDS011;18708;53.124;23.190;2024-01-10T14:19:51;72.18;;;27.63;;
32214;SDS011;18708;53.124;23.190;2024-01-10T14:22:17;81.43;;;34.28;;
32214;SDS011;18708;53.124;23.190;2024-01-10T14:24:43;74.28;;;28.50;;